首页
METAR-TAF:

METAR-TAF

机场 :

第比利斯国际机场

第比利斯, 格鲁吉亚

纬度: 41-40-09N, 经度: 044-57-17E, 海拔: 495米

当前天气观测

该预报发布于21分钟前的21:00 UTC
风速6节,风向
温度 10°C
湿度 82%
气压 1017 hPa
能见度10公里或以上
阴天层高于2700英尺

METAR: UGTB 282100Z 08006KT 9999 OVC027 10/07 Q1017 NOSIG

时间: 01:21 (21:21 UTC)

预报

该预报发布于4小时和21分钟前的17:00 UTC
预报有效从28日的 18点(UTC)到 29日的 18点(UTC)
风速7节,风向东南
能见度10公里或以上
散云层高于5000英尺
成为
从 28日的 21点(UTC)到 28日的 24点(UTC)
风速2节,风向多变
多云层高于2200英尺
阴天层高于4500英尺
几率 40% :
短暂存在
从 28日的 22点(UTC)到 29日的 06点(UTC)
能見度: 4500
多云层高于1400英尺, 积雨云.
阴天层高于3500英尺
阵雨, 轻雾
短暂存在
从 29日的 07点(UTC)到 29日的 14点(UTC)
散云层高于4500英尺
多云层高于6500英尺

TAF: UGTB 281700Z 2818/2918 14007KT 9999 SCT050 TX14/2911Z TN06/2902Z BECMG 2821/2824 VRB02KT BKN022 OVC045 PROB40 TEMPO 2822/2906 4500 SHRA BR BKN014CB OVC035 TEMPO 2907/2914 SCT045 BKN065

超过4000个机场的气象观测和天气预报(METAR&TAF报告)。

可查询的气象台以黄色和红色小点在地图上表示。

将鼠标移到小点上方,可查看气象台名称。

然后点击查看天气观测和预报。

如需切换地图:点击带黑十字的绿色按钮放大地图;点击带横线的绿色按钮缩小地图;或者点击绿色箭头查看邻近地区的地图。


METAR-TAF: